Time;durP1;ratioP1;P1;durP2;ratioP2;P2;SDS_P1;SDS_P2;PMS_P1;PMS_P2;Temp;Humidity;BMP_temperature;BMP_pressure;BME280_temperature;BME280_humidity;BME280_pressure;Samples;Min_cycle;Max_cycle;Signal;HPM_P1;HPM_P2
2022/04/14 00:04:17;;;;;;;10.23;8.43;;;15.30;68.60;;;;;;11022041;32;20025;-71
2022/04/14 00:10:19;;;;;;;10.85;9.15;;;15.20;68.60;;;;;;11021624;32;20319;-71
2022/04/14 00:16:22;;;;;;;12.55;9.35;;;15.10;68.90;;;;;;11007896;32;20011;-71
2022/04/14 00:22:24;;;;;;;11.57;8.18;;;15.10;68.80;;;;;;11018822;32;20026;-71
2022/04/14 00:28:26;;;;;;;10.00;7.62;;;15.00;68.80;;;;;;11021047;32;20021;-71
2022/04/14 00:34:28;;;;;;;11.93;8.57;;;15.00;68.70;;;;;;11020806;32;20058;-71
2022/04/14 00:40:30;;;;;;;13.82;9.95;;;14.80;69.00;;;;;;11016508;32;20381;-71
2022/04/14 00:46:32;;;;;;;11.30;9.40;;;14.80;69.00;;;;;;11016203;32;20048;-71
2022/04/14 00:52:34;;;;;;;10.75;9.20;;;14.70;69.30;;;;;;11020129;32;20390;-71
2022/04/14 00:58:37;;;;;;;12.88;10.80;;;14.70;69.40;;;;;;11020192;32;20045;-71
2022/04/14 01:04:41;;;;;;;14.35;12.48;;;14.70;69.50;;;;;;11019921;32;20023;-71
2022/04/14 01:11:11;;;;;;;12.57;11.18;;;14.80;69.30;;;;;;11016469;32;20031;-71
2022/04/14 01:17:14;;;;;;;19.10;13.85;;;15.00;69.40;;;;;;11015371;27;20030;-70
2022/04/14 01:23:39;;;;;;;14.93;11.05;;;14.90;68.90;;;;;;11016073;32;20030;-70
2022/04/14 01:29:42;;;;;;;13.65;10.65;;;14.80;68.50;;;;;;11014371;32;20031;-70
2022/04/14 01:35:44;;;;;;;11.73;9.98;;;14.60;68.90;;;;;;11019167;32;20030;-71
2022/04/14 01:41:46;;;;;;;11.43;8.45;;;14.30;69.60;;;;;;11018991;32;20398;-71
2022/04/14 01:47:48;;;;;;;13.30;9.70;;;14.20;69.50;;;;;;11003449;32;20015;-71
2022/04/14 01:53:50;;;;;;;10.52;9.27;;;14.20;70.00;;;;;;11018662;32;20031;-71
2022/04/14 01:59:53;;;;;;;11.10;8.80;;;14.20;70.00;;;;;;11017097;32;20022;-71
2022/04/14 02:05:55;;;;;;;13.25;9.63;;;14.20;69.90;;;;;;11018457;32;20026;-71
2022/04/14 02:11:58;;;;;;;14.75;10.63;;;14.10;70.20;;;;;;11014189;32;20034;-71
2022/04/14 02:18:00;;;;;;;14.70;11.23;;;14.10;70.20;;;;;;11018305;32;20088;-71
2022/04/14 02:24:02;;;;;;;11.63;9.00;;;14.10;70.30;;;;;;11018036;32;20436;-71
2022/04/14 02:30:05;;;;;;;17.02;13.57;;;14.10;70.40;;;;;;11004450;32;20064;-71
2022/04/14 02:36:07;;;;;;;14.00;10.60;;;14.20;70.30;;;;;;11017936;32;20022;-71
2022/04/14 02:42:09;;;;;;;13.23;10.18;;;14.10;70.10;;;;;;11019088;32;20088;-71
2022/04/14 02:48:11;;;;;;;11.60;9.20;;;14.00;70.10;;;;;;11024709;32;20050;-71
2022/04/14 02:54:14;;;;;;;11.80;8.52;;;13.90;70.50;;;;;;11024607;32;20021;-71
2022/04/14 03:00:17;;;;;;;13.25;9.77;;;13.90;70.60;;;;;;11023181;32;20027;-71
2022/04/14 03:06:19;;;;;;;14.18;11.05;;;13.80;70.50;;;;;;11024155;32;20026;-71
2022/04/14 03:12:21;;;;;;;11.05;9.90;;;13.70;70.80;;;;;;11023664;32;20061;-71
2022/04/14 03:18:26;;;;;;;15.32;13.40;;;13.70;71.00;;;;;;11020638;32;20018;-71
2022/04/14 03:24:28;;;;;;;15.57;13.88;;;13.80;70.80;;;;;;11019317;32;20045;-71
2022/04/14 03:30:30;;;;;;;15.02;11.82;;;13.80;71.10;;;;;;11023382;32;20069;-71
2022/04/14 03:36:52;;;;;;;13.68;11.25;;;13.80;70.80;;;;;;10944675;32;20039;-71
2022/04/14 03:43:07;;;;;;;15.30;10.13;;;13.50;71.20;;;;;;10939455;32;20050;-71
2022/04/14 03:49:12;;;;;;;10.90;9.10;;;13.50;71.30;;;;;;10943767;32;20082;-71
2022/04/14 03:55:14;;;;;;;11.80;9.88;;;13.50;71.10;;;;;;10943010;32;20023;-71
2022/04/14 04:01:33;;;;;;;12.93;8.00;;;13.30;71.20;;;;;;10943618;32;20034;-71
2022/04/14 04:07:35;;;;;;;12.48;9.70;;;13.10;71.60;;;;;;11003528;32;20291;-71
2022/04/14 04:13:37;;;;;;;14.75;10.70;;;13.00;71.80;;;;;;11018175;32;20322;-71
2022/04/14 04:19:39;;;;;;;14.45;12.10;;;12.80;72.00;;;;;;11021698;32;20076;-71
2022/04/14 04:25:41;;;;;;;15.10;12.13;;;12.80;72.20;;;;;;11021472;32;20366;-71
2022/04/14 04:31:43;;;;;;;13.82;9.10;;;12.80;72.20;;;;;;11019854;32;20022;-71
2022/04/14 04:37:46;;;;;;;15.43;12.23;;;12.90;72.30;;;;;;11017165;32;20027;-71
2022/04/14 04:43:48;;;;;;;13.30;9.85;;;12.90;72.10;;;;;;11021042;32;20048;-71
2022/04/14 04:49:50;;;;;;;13.43;10.77;;;12.80;71.90;;;;;;11021375;32;20393;-70
2022/04/14 04:55:52;;;;;;;10.68;8.43;;;12.80;72.00;;;;;;11021602;32;20018;-70
2022/04/14 05:02:16;;;;;;;15.10;13.30;;;12.80;72.30;;;;;;11020228;32;20049;-70
2022/04/14 05:08:21;;;;;;;12.23;9.50;;;12.70;72.10;;;;;;10978551;32;20019;-70
2022/04/14 05:14:22;;;;;;;12.20;9.38;;;12.70;72.40;;;;;;10977731;32;20421;-71
2022/04/14 05:20:24;;;;;;;10.00;7.90;;;12.90;72.00;;;;;;10981253;32;20358;-71
2022/04/14 05:26:30;;;;;;;13.32;11.85;;;12.80;72.20;;;;;;10981327;32;20043;-71
2022/04/14 05:32:32;;;;;;;20.25;9.38;;;13.10;72.00;;;;;;10980399;32;20045;-71
2022/04/14 05:38:34;;;;;;;11.40;10.18;;;13.20;71.70;;;;;;10979902;32;20027;-71
2022/04/14 05:44:48;;;;;;;14.65;10.48;;;13.30;71.80;;;;;;10980451;32;20022;-71
2022/04/14 05:50:51;;;;;;;14.02;12.15;;;13.50;71.60;;;;;;10980478;32;20084;-71
2022/04/14 05:56:53;;;;;;;15.90;11.95;;;13.60;71.40;;;;;;10966849;32;20031;-71
2022/04/14 06:02:59;;;;;;;12.77;11.00;;;13.50;71.60;;;;;;10976222;32;20062;-71
2022/04/14 06:09:16;;;;;;;14.95;13.45;;;13.70;71.80;;;;;;10945343;32;20053;-71
2022/04/14 06:15:19;;;;;;;13.70;10.60;;;13.70;71.80;;;;;;10939722;32;20027;-71
2022/04/14 06:21:21;;;;;;;19.90;14.68;;;13.80;71.30;;;;;;10949008;32;20080;-71
2022/04/14 06:27:23;;;;;;;16.62;12.10;;;13.90;71.40;;;;;;10956850;32;20049;-71
2022/04/14 06:33:25;;;;;;;12.95;10.38;;;14.00;71.50;;;;;;10971677;32;20027;-71
2022/04/14 06:39:27;;;;;;;14.55;10.10;;;14.20;71.20;;;;;;10983947;32;20038;-71
2022/04/14 06:45:30;;;;;;;9.52;7.62;;;14.30;71.10;;;;;;10981895;32;20402;-71
2022/04/14 06:51:32;;;;;;;17.62;9.75;;;14.30;71.00;;;;;;10981499;32;20034;-69
2022/04/14 06:57:35;;;;;;;12.68;10.20;;;14.60;71.20;;;;;;10985094;32;20023;-70
2022/04/14 07:03:37;;;;;;;14.15;9.52;;;14.70;70.50;;;;;;10984729;32;20338;-70
2022/04/14 07:09:39;;;;;;;10.70;7.87;;;14.80;70.40;;;;;;10980411;32;20345;-69
2022/04/14 07:15:41;;;;;;;14.90;8.32;;;15.10;70.20;;;;;;10980187;32;20525;-70
2022/04/14 07:21:43;;;;;;;13.00;9.80;;;15.10;69.90;;;;;;10984192;32;20046;-70
2022/04/14 07:27:45;;;;;;;12.15;10.35;;;15.10;69.80;;;;;;10981111;32;20026;-69
2022/04/14 07:33:47;;;;;;;12.37;8.15;;;15.30;70.50;;;;;;10967130;32;20049;-69
2022/04/14 07:39:48;;;;;;;8.52;7.05;;;15.60;70.10;;;;;;10946188;32;20039;-69
2022/04/14 07:45:50;;;;;;;13.77;9.05;;;15.80;69.70;;;;;;10945379;32;20026;-69
2022/04/14 07:52:19;;;;;;;11.77;8.52;;;15.90;69.90;;;;;;10972682;32;20041;-69
2022/04/14 07:58:21;;;;;;;12.85;8.15;;;16.10;69.60;;;;;;10965273;32;20054;-69
2022/04/14 08:04:22;;;;;;;14.27;9.05;;;16.40;69.40;;;;;;10968203;32;20043;-69
2022/04/14 08:10:24;;;;;;;8.95;6.12;;;16.50;69.00;;;;;;10979150;32;20053;-69
2022/04/14 08:16:26;;;;;;;12.77;10.50;;;16.70;68.80;;;;;;10977154;32;20085;-70
2022/04/14 08:22:28;;;;;;;8.60;6.72;;;16.70;68.50;;;;;;10930369;32;20058;-69
2022/04/14 08:28:40;;;;;;;12.37;7.28;;;16.70;68.30;;;;;;10927258;32;20045;-70
2022/04/14 08:34:45;;;;;;;9.60;6.00;;;16.70;67.60;;;;;;10943426;32;20019;-69
2022/04/14 08:40:50;;;;;;;8.38;6.53;;;16.70;67.80;;;;;;10942648;32;20019;-70
2022/04/14 08:47:01;;;;;;;9.55;7.10;;;16.80;67.70;;;;;;10929899;32;20433;-69
2022/04/14 08:53:04;;;;;;;12.15;8.65;;;16.90;67.40;;;;;;10941944;32;20057;-69
2022/04/14 08:59:18;;;;;;;10.02;7.10;;;17.10;66.40;;;;;;10939737;32;20023;-70
2022/04/14 09:05:21;;;;;;;7.50;5.62;;;17.20;65.40;;;;;;10942723;32;20053;-69
2022/04/14 09:11:23;;;;;;;7.62;5.82;;;17.30;66.00;;;;;;10942446;32;20054;-70
2022/04/14 09:17:27;;;;;;;7.32;4.15;;;17.40;65.30;;;;;;10654001;32;10003909;-69
2022/04/14 09:23:37;;;;;;;13.95;7.62;;;17.70;66.00;;;;;;10979552;32;20569;-69
2022/04/14 09:29:47;;;;;;;11.95;8.32;;;17.90;65.70;;;;;;10976039;32;20296;-69
2022/04/14 09:36:16;;;;;;;9.45;6.90;;;18.00;65.20;;;;;;10976084;32;20045;-69
2022/04/14 09:42:21;;;;;;;7.45;4.15;;;18.20;63.90;;;;;;10978925;32;20018;-70
2022/04/14 09:48:24;;;;;;;8.45;4.90;;;18.40;64.40;;;;;;10965772;32;20031;-69
2022/04/14 09:54:29;;;;;;;5.90;3.65;;;18.70;64.50;;;;;;10964858;32;20049;-69
2022/04/14 10:00:53;;;;;;;7.95;4.72;;;18.80;64.00;;;;;;10978939;32;20057;-69
2022/04/14 10:07:13;;;;;;;7.90;4.37;;;19.00;62.70;;;;;;10978739;32;20027;-69
2022/04/14 10:13:17;;;;;;;8.80;7.22;;;19.20;62.40;;;;;;10977402;32;20053;-70
2022/04/14 10:19:20;;;;;;;8.77;4.40;;;19.50;61.30;;;;;;10977712;32;20045;-69
2022/04/14 10:25:24;;;;;;;8.63;5.78;;;19.70;60.70;;;;;;10977315;32;20060;-70
2022/04/14 10:31:27;;;;;;;9.27;6.15;;;19.90;59.80;;;;;;10975110;32;20023;-70
2022/04/14 10:37:35;;;;;;;7.43;4.50;;;20.20;58.40;;;;;;10977170;32;20027;-70
2022/04/14 10:43:42;;;;;;;11.53;5.33;;;20.30;57.80;;;;;;10977094;32;20053;-70
2022/04/14 10:49:49;;;;;;;10.45;5.15;;;20.50;56.50;;;;;;10973571;32;20026;-71
2022/04/14 10:55:52;;;;;;;6.30;3.62;;;20.80;56.20;;;;;;10959659;32;20034;-70
2022/04/14 11:01:55;;;;;;;5.97;3.75;;;21.00;56.00;;;;;;10961607;32;20403;-71
2022/04/14 11:08:26;;;;;;;5.35;2.70;;;21.40;55.30;;;;;;10982766;32;20038;-70
2022/04/14 11:14:34;;;;;;;9.32;5.43;;;21.70;52.90;;;;;;10983113;32;20035;-70
2022/04/14 11:20:37;;;;;;;8.30;4.20;;;21.90;53.60;;;;;;10978785;32;20053;-70
2022/04/14 11:26:40;;;;;;;10.57;6.18;;;22.20;53.10;;;;;;10980447;32;20023;-70
2022/04/14 11:32:42;;;;;;;10.68;6.10;;;22.50;52.30;;;;;;10979070;32;20011;-71
2022/04/14 11:38:58;;;;;;;12.80;6.00;;;22.80;52.00;;;;;;10984182;32;20019;-71
2022/04/14 11:45:01;;;;;;;12.32;7.20;;;23.10;51.10;;;;;;10984358;32;20070;-71
2022/04/14 11:51:03;;;;;;;9.95;5.70;;;23.30;50.70;;;;;;10969342;32;20027;-71
2022/04/14 11:57:13;;;;;;;13.77;8.75;;;23.50;50.70;;;;;;10982126;32;20031;-71
2022/04/14 12:03:16;;;;;;;9.98;5.18;;;23.80;49.80;;;;;;10980704;32;20072;-70
2022/04/14 12:09:20;;;;;;;10.52;4.97;;;23.90;50.10;;;;;;10982845;32;20022;-70
2022/04/14 12:15:23;;;;;;;21.83;10.80;;;24.30;49.80;;;;;;10978893;32;20019;-71
2022/04/14 12:21:27;;;;;;;15.88;8.27;;;24.40;48.30;;;;;;10969083;32;20026;-70
2022/04/14 12:27:37;;;;;;;11.80;6.35;;;24.30;47.50;;;;;;10982079;32;20019;-70
2022/04/14 12:33:39;;;;;;;13.62;5.22;;;24.30;47.80;;;;;;10978100;32;20022;-70
2022/04/14 12:40:00;;;;;;;9.52;4.53;;;24.50;47.70;;;;;;10979547;32;20049;-70
2022/04/14 12:46:19;;;;;;;9.90;5.68;;;24.70;47.00;;;;;;10979180;32;20049;-71
2022/04/14 12:52:28;;;;;;;12.73;4.97;;;24.70;46.40;;;;;;10977573;32;20034;-70
2022/04/14 12:58:31;;;;;;;11.70;7.72;;;24.70;46.60;;;;;;10979806;32;20050;-71
2022/04/14 13:04:38;;;;;;;9.63;5.85;;;24.80;47.00;;;;;;10980829;32;20035;-71
2022/04/14 13:10:45;;;;;;;17.75;9.32;;;24.90;44.90;;;;;;10981336;32;20019;-71
2022/04/14 13:16:50;;;;;;;12.07;8.30;;;24.90;45.10;;;;;;10979736;32;20041;-71
2022/04/14 13:22:52;;;;;;;12.85;7.70;;;24.60;45.60;;;;;;10967510;32;20338;-71
2022/04/14 13:28:54;;;;;;;18.62;12.27;;;24.00;46.60;;;;;;10942980;32;20023;-71
2022/04/14 13:34:57;;;;;;;21.42;11.40;;;24.00;47.20;;;;;;10929822;32;20027;-71
2022/04/14 13:40:59;;;;;;;18.67;9.55;;;24.30;46.70;;;;;;10929689;32;20027;-71
2022/04/14 13:47:02;;;;;;;11.18;6.28;;;24.80;46.00;;;;;;10940335;32;20035;-71
2022/04/14 13:53:17;;;;;;;13.38;8.90;;;25.00;44.90;;;;;;10939215;32;20027;-71
2022/04/14 13:59:20;;;;;;;16.25;8.77;;;25.10;44.40;;;;;;10938234;32;20328;-71
2022/04/14 14:05:22;;;;;;;12.93;7.65;;;25.30;44.40;;;;;;10937609;32;20188;-71
2022/04/14 14:11:23;;;;;;;9.38;4.85;;;25.30;44.40;;;;;;10936740;32;20062;-71
2022/04/14 14:17:26;;;;;;;16.62;8.68;;;25.00;44.70;;;;;;10937454;32;20026;-71
2022/04/14 14:23:28;;;;;;;8.05;5.20;;;24.60;45.80;;;;;;10948758;32;20058;-71
2022/04/14 14:29:30;;;;;;;13.35;7.00;;;24.20;46.40;;;;;;10977924;32;20031;-70
2022/04/14 14:36:02;;;;;;;8.90;5.62;;;23.90;47.30;;;;;;10978701;32;20045;-70
2022/04/14 14:42:05;;;;;;;11.52;5.75;;;23.70;47.30;;;;;;10985274;32;20026;-70
2022/04/14 14:48:07;;;;;;;14.60;5.00;;;23.70;47.30;;;;;;10985872;32;20039;-71
2022/04/14 14:54:09;;;;;;;10.98;6.10;;;23.80;47.60;;;;;;10968564;32;20053;-70
2022/04/14 15:00:12;;;;;;;8.98;4.20;;;23.90;47.80;;;;;;10984947;32;20062;-70
2022/04/14 15:06:13;;;;;;;8.73;5.00;;;24.20;47.40;;;;;;10985372;32;20049;-71
2022/04/14 15:12:15;;;;;;;7.62;3.40;;;24.40;46.90;;;;;;10983178;32;20338;-71
2022/04/14 15:18:17;;;;;;;6.75;3.03;;;24.70;46.30;;;;;;10983267;32;20022;-70
2022/04/14 15:24:20;;;;;;;5.80;3.50;;;25.00;45.70;;;;;;10982342;32;20038;-71
2022/04/14 15:30:23;;;;;;;6.80;3.17;;;25.30;45.00;;;;;;10985131;32;20065;-70
2022/04/14 15:36:45;;;;;;;8.75;3.47;;;25.50;45.40;;;;;;10984707;32;20026;-70
2022/04/14 15:42:47;;;;;;;10.77;3.60;;;25.80;45.50;;;;;;10983907;32;20080;-70
2022/04/14 15:48:49;;;;;;;14.23;4.80;;;25.80;45.50;;;;;;10982244;32;20031;-70
2022/04/14 15:54:54;;;;;;;12.43;6.65;;;25.70;46.10;;;;;;10982876;32;20393;-69
2022/04/14 16:00:59;;;;;;;10.60;4.03;;;25.50;47.10;;;;;;10971957;32;20441;-69
2022/04/14 16:07:01;;;;;;;6.43;3.67;;;25.10;48.20;;;;;;10982349;32;20066;-70
2022/04/14 16:13:05;;;;;;;14.32;4.20;;;24.60;49.60;;;;;;10977587;32;20034;-69
2022/04/14 16:19:20;;;;;;;9.48;4.47;;;24.50;50.40;;;;;;10978107;32;20342;-70
2022/04/14 16:25:23;;;;;;;15.35;4.90;;;25.00;49.60;;;;;;10981005;32;20034;-69
2022/04/14 16:31:25;;;;;;;12.57;4.20;;;25.70;49.00;;;;;;10980873;32;20057;-70
2022/04/14 16:37:28;;;;;;;10.32;4.68;;;26.70;47.60;;;;;;10981285;32;20050;-70
2022/04/14 16:43:30;;;;;;;8.23;3.45;;;27.80;46.10;;;;;;10979280;32;20030;-70
2022/04/14 16:49:33;;;;;;;4.80;2.83;;;28.30;46.00;;;;;;10981140;32;20066;-70
2022/04/14 16:55:37;;;;;;;10.40;4.80;;;28.90;45.20;;;;;;10967472;32;20024;-70
2022/04/14 17:02:19;;;;;;;6.60;3.30;;;29.20;43.90;;;;;;10962483;32;20026;-70
2022/04/14 17:08:21;;;;;;;4.93;3.12;;;28.80;43.60;;;;;;10977381;32;20342;-70
2022/04/14 17:14:28;;;;;;;8.27;3.87;;;28.20;44.60;;;;;;10977894;27;20057;-70
2022/04/14 17:20:34;;;;;;;12.80;3.53;;;28.00;45.90;;;;;;10979244;32;20026;-70
2022/04/14 17:27:00;;;;;;;7.40;2.78;;;26.80;48.10;;;;;;10982004;32;20315;-71
2022/04/14 17:33:02;;;;;;;8.65;5.18;;;25.80;50.60;;;;;;10967269;32;20050;-71
2022/04/14 17:39:04;;;;;;;6.18;2.50;;;25.80;51.00;;;;;;10975968;32;20045;-71
2022/04/14 17:45:07;;;;;;;5.55;2.33;;;25.90;50.50;;;;;;10976414;32;20062;-71
2022/04/14 17:51:09;;;;;;;3.33;2.42;;;25.10;51.10;;;;;;10979386;32;20019;-71
2022/04/14 17:57:11;;;;;;;6.93;3.45;;;24.40;52.50;;;;;;10977371;32;20049;-71
2022/04/14 18:03:14;;;;;;;5.40;3.55;;;23.80;53.80;;;;;;10980566;32;20022;-71
2022/04/14 18:09:16;;;;;;;11.18;4.55;;;23.20;55.50;;;;;;10980532;32;20026;-71
2022/04/14 18:15:18;;;;;;;10.43;6.95;;;22.90;56.80;;;;;;10984963;32;20015;-71
2022/04/14 18:21:25;;;;;;;7.72;4.87;;;22.60;57.30;;;;;;10973386;32;20043;-71
2022/04/14 18:27:49;;;;;;;5.93;4.43;;;22.30;57.60;;;;;;10933103;32;20380;-71
2022/04/14 18:33:51;;;;;;;10.32;4.87;;;22.20;57.80;;;;;;10981334;32;20022;-71
2022/04/14 18:39:54;;;;;;;6.65;4.03;;;22.10;57.60;;;;;;10973524;32;20096;-71
2022/04/14 18:45:57;;;;;;;9.43;5.70;;;22.00;57.60;;;;;;10986460;32;20034;-71
2022/04/14 18:51:59;;;;;;;6.45;4.18;;;21.90;57.60;;;;;;10983555;32;20045;-71
2022/04/14 18:58:02;;;;;;;7.10;3.85;;;21.70;58.20;;;;;;10986682;32;20026;-71
2022/04/14 19:04:05;;;;;;;9.23;4.50;;;21.60;58.30;;;;;;10986308;32;20429;-71
2022/04/14 19:10:08;;;;;;;5.22;3.70;;;21.50;58.60;;;;;;10981874;32;20019;-71
2022/04/14 19:16:10;;;;;;;5.05;3.58;;;21.30;59.20;;;;;;10985994;32;20367;-71
2022/04/14 19:22:19;;;;;;;12.37;4.43;;;21.00;59.80;;;;;;10984379;32;20053;-71
2022/04/14 19:28:23;;;;;;;13.40;4.55;;;20.90;60.20;;;;;;10985019;32;20054;-71
2022/04/14 19:34:27;;;;;;;9.43;6.05;;;20.80;60.40;;;;;;10985101;32;20041;-71
2022/04/14 19:40:29;;;;;;;6.50;4.43;;;20.70;60.80;;;;;;10984177;32;20045;-71
2022/04/14 19:47:02;;;;;;;7.93;5.87;;;20.60;61.00;;;;;;10984372;32;20026;-72
2022/04/14 19:53:04;;;;;;;9.65;6.00;;;20.60;61.30;;;;;;10984268;32;20387;-72
2022/04/14 19:59:06;;;;;;;8.30;5.70;;;20.50;61.50;;;;;;10984554;32;20019;-72
2022/04/14 20:05:09;;;;;;;9.23;6.28;;;20.40;61.60;;;;;;10984108;32;20026;-72
2022/04/14 20:11:23;;;;;;;8.35;7.35;;;20.30;62.10;;;;;;10983921;32;20014;-72
2022/04/14 20:17:26;;;;;;;9.88;7.12;;;20.40;62.30;;;;;;10980203;32;20007;-72
2022/04/14 20:23:29;;;;;;;5.95;4.37;;;20.30;63.10;;;;;;10968992;32;20031;-72
2022/04/14 20:29:31;;;;;;;7.68;5.85;;;20.10;63.70;;;;;;10965620;32;20030;-71
2022/04/14 20:35:33;;;;;;;9.35;7.20;;;19.70;64.20;;;;;;10946576;32;20413;-71
2022/04/14 20:41:35;;;;;;;8.38;6.18;;;19.80;64.20;;;;;;10957938;32;20053;-71
2022/04/14 20:47:43;;;;;;;13.05;7.20;;;19.80;63.90;;;;;;10981757;32;20053;-71
2022/04/14 20:53:46;;;;;;;8.63;6.37;;;19.60;64.00;;;;;;10964525;32;20018;-71
2022/04/14 20:59:48;;;;;;;8.13;5.80;;;19.70;64.50;;;;;;10981543;32;20041;-71
2022/04/14 21:05:50;;;;;;;9.48;6.75;;;19.70;64.20;;;;;;10981297;32;20045;-71
2022/04/14 21:11:52;;;;;;;9.60;6.78;;;19.50;64.20;;;;;;10978536;32;20058;-71
2022/04/14 21:17:57;;;;;;;9.77;6.72;;;19.30;64.70;;;;;;10980657;32;20011;-71
2022/04/14 21:24:00;;;;;;;8.77;6.43;;;19.00;65.00;;;;;;10980232;32;20023;-71
2022/04/14 21:30:04;;;;;;;12.00;8.35;;;19.00;65.00;;;;;;10980360;32;20424;-71
2022/04/14 21:36:06;;;;;;;8.20;5.55;;;19.10;65.30;;;;;;10979171;32;20022;-71
2022/04/14 21:42:31;;;;;;;7.85;5.40;;;19.00;64.90;;;;;;10979641;32;20019;-71
2022/04/14 21:48:55;;;;;;;6.87;5.25;;;18.80;65.60;;;;;;10975040;32;20062;-71
2022/04/14 21:54:57;;;;;;;9.63;6.90;;;18.40;66.10;;;;;;10979490;32;20022;-71
2022/04/14 22:07:01;;;;;;;10.40;7.00;;;18.50;66.30;;;;;;10975516;32;20022;-71
2022/04/14 22:13:04;;;;;;;11.43;7.20;;;18.60;66.40;;;;;;10979007;32;20395;-71
2022/04/14 22:19:06;;;;;;;10.98;7.20;;;18.60;66.30;;;;;;10979055;32;20014;-71
2022/04/14 22:25:09;;;;;;;11.40;7.65;;;18.60;66.80;;;;;;10979815;32;20057;-71
2022/04/14 22:31:11;;;;;;;7.28;5.95;;;18.50;66.30;;;;;;10975972;32;20014;-71
2022/04/14 22:37:13;;;;;;;8.88;6.00;;;18.30;66.50;;;;;;10979625;32;20019;-71
2022/04/14 22:43:18;;;;;;;9.93;6.85;;;18.20;66.70;;;;;;10979305;32;20393;-71
2022/04/14 22:49:48;;;;;;;9.65;7.47;;;17.90;67.30;;;;;;10979595;32;20065;-71
2022/04/14 22:55:50;;;;;;;12.90;8.25;;;17.90;67.50;;;;;;10979682;32;20346;-71
2022/04/14 23:01:52;;;;;;;9.50;7.22;;;17.80;67.70;;;;;;10982144;32;20049;-71
2022/04/14 23:07:54;;;;;;;12.55;7.93;;;17.50;68.10;;;;;;10986340;32;20014;-71
2022/04/14 23:13:56;;;;;;;11.75;8.77;;;17.50;68.30;;;;;;10986042;32;20425;-71
2022/04/14 23:19:58;;;;;;;12.07;9.25;;;17.60;68.10;;;;;;10985878;32;20371;-71
2022/04/14 23:26:01;;;;;;;10.50;6.80;;;17.70;67.80;;;;;;10971895;32;20068;-71
2022/04/14 23:32:28;;;;;;;10.23;7.32;;;17.70;68.10;;;;;;10985298;32;20050;-73
2022/04/14 23:38:31;;;;;;;9.25;6.03;;;17.50;68.20;;;;;;10971936;32;20022;-71
2022/04/14 23:44:32;;;;;;;17.75;12.93;;;17.50;68.20;;;;;;10985182;32;20077;-71
2022/04/14 23:50:34;;;;;;;17.62;11.27;;;17.50;68.10;;;;;;10971577;32;20041;-71
2022/04/14 23:56:37;;;;;;;13.85;9.15;;;17.50;68.00;;;;;;10984865;32;20018;-72
